Time;durP1;ratioP1;P1;durP2;ratioP2;P2;SDS_P1;SDS_P2;PMS_P1;PMS_P2;Temp;Humidity;BMP_temperature;BMP_pressure;BME280_temperature;BME280_humidity;BME280_pressure;Samples;Min_cycle;Max_cycle;Signal;HPM_P1;HPM_P2
2022/10/06 00:01:17;;;;;;;4.75;3.67;;;15.70;99.90;;;;;;4992098;28;20089;-47
2022/10/06 00:03:43;;;;;;;4.28;3.05;;;15.70;99.90;;;;;;4991995;28;20030;-49
2022/10/06 00:06:12;;;;;;;5.47;3.25;;;15.60;99.90;;;;;;4991801;28;20054;-48
2022/10/06 00:08:39;;;;;;;3.10;2.65;;;15.60;99.90;;;;;;4992006;28;20394;-49
2022/10/06 00:11:06;;;;;;;6.05;3.83;;;15.70;99.90;;;;;;4991953;28;20042;-46
2022/10/06 00:13:33;;;;;;;7.70;3.30;;;15.70;99.90;;;;;;4991779;28;20114;-48
2022/10/06 00:15:59;;;;;;;8.85;3.58;;;15.70;99.90;;;;;;4991988;28;20026;-47
2022/10/06 00:18:25;;;;;;;8.60;3.78;;;15.80;99.90;;;;;;4991905;28;20113;-50
2022/10/06 00:20:57;;;;;;;5.97;3.40;;;15.70;99.90;;;;;;4991612;28;20068;-46
2022/10/06 00:23:23;;;;;;;3.83;3.17;;;15.70;99.90;;;;;;4991799;28;20029;-48
2022/10/06 00:25:48;;;;;;;9.57;3.33;;;15.70;99.90;;;;;;4991822;28;20022;-46
2022/10/06 00:28:15;;;;;;;3.42;3.13;;;15.70;99.90;;;;;;4991484;28;20026;-44
2022/10/06 00:30:41;;;;;;;3.70;3.20;;;15.70;99.90;;;;;;4991487;28;20026;-49
2022/10/06 00:33:06;;;;;;;18.63;3.90;;;15.70;99.90;;;;;;4991451;28;20057;-45
2022/10/06 00:35:33;;;;;;;4.45;3.50;;;15.70;99.90;;;;;;4991849;28;20027;-47
2022/10/06 00:37:59;;;;;;;5.78;3.60;;;15.70;99.90;;;;;;4991772;28;20053;-45
2022/10/06 00:40:26;;;;;;;4.63;3.13;;;15.70;99.90;;;;;;4991567;28;20034;-47
2022/10/06 00:43:04;;;;;;;3.78;3.25;;;15.70;99.90;;;;;;4991602;28;20034;-50
2022/10/06 00:45:41;;;;;;;5.97;3.72;;;15.60;99.90;;;;;;4991800;28;20022;-46
2022/10/06 00:48:14;;;;;;;4.68;3.13;;;15.60;99.90;;;;;;4991893;28;20485;-46
2022/10/06 00:50:41;;;;;;;7.43;2.97;;;15.70;99.90;;;;;;4990505;28;20041;-49
2022/10/06 00:53:07;;;;;;;6.63;3.65;;;15.70;99.90;;;;;;4991386;28;20372;-48
2022/10/06 00:55:32;;;;;;;5.43;3.45;;;15.70;99.90;;;;;;4991290;28;20029;-45
2022/10/06 00:57:59;;;;;;;6.05;2.92;;;15.60;99.90;;;;;;4991938;28;20026;-47
2022/10/06 01:00:26;;;;;;;9.93;4.20;;;15.70;99.90;;;;;;4994962;28;20026;-47
2022/10/06 01:02:59;;;;;;;4.53;3.03;;;15.70;99.90;;;;;;4994852;28;20030;-45
2022/10/06 01:05:29;;;;;;;13.90;3.55;;;15.70;99.90;;;;;;4995278;28;20023;-48
2022/10/06 01:07:55;;;;;;;9.23;3.40;;;15.80;99.90;;;;;;4995278;28;20498;-49
2022/10/06 01:10:21;;;;;;;7.30;3.05;;;15.90;99.90;;;;;;4995028;28;20054;-48
2022/10/06 01:12:47;;;;;;;5.65;3.13;;;15.90;99.90;;;;;;4994533;28;20022;-48
2022/10/06 01:15:13;;;;;;;4.28;3.60;;;16.00;99.90;;;;;;4995325;28;20030;-45
2022/10/06 01:17:45;;;;;;;5.53;3.35;;;16.00;99.90;;;;;;4993692;28;20057;-45
2022/10/06 01:20:14;;;;;;;5.45;2.83;;;16.10;99.90;;;;;;4995013;28;20023;-45
2022/10/06 01:22:43;;;;;;;6.47;2.90;;;16.10;99.90;;;;;;4994474;28;20039;-48
2022/10/06 01:25:11;;;;;;;7.00;3.10;;;16.20;99.90;;;;;;4995428;28;20066;-45
2022/10/06 01:27:39;;;;;;;6.75;3.08;;;16.30;99.90;;;;;;4994205;28;20030;-45
2022/10/06 01:30:08;;;;;;;4.95;3.17;;;16.30;99.90;;;;;;4996130;28;20433;-45
2022/10/06 01:32:36;;;;;;;8.18;3.10;;;16.30;99.90;;;;;;4995180;28;20030;-47
2022/10/06 01:35:03;;;;;;;10.38;3.60;;;16.30;99.90;;;;;;4995314;28;20046;-45
2022/10/06 01:37:29;;;;;;;3.67;2.83;;;16.30;99.90;;;;;;4995085;28;20040;-44
2022/10/06 01:39:54;;;;;;;5.88;3.35;;;16.20;99.90;;;;;;4994599;28;20022;-46
2022/10/06 01:42:20;;;;;;;5.65;3.10;;;16.30;99.90;;;;;;4994413;28;20022;-45
2022/10/06 01:44:45;;;;;;;5.53;3.10;;;16.30;99.90;;;;;;4995004;28;20027;-44
2022/10/06 01:47:11;;;;;;;4.53;3.15;;;16.20;99.90;;;;;;4994693;28;20030;-46
2022/10/06 01:49:36;;;;;;;4.55;3.00;;;16.30;99.90;;;;;;4995063;28;20158;-45
2022/10/06 01:52:02;;;;;;;10.23;3.03;;;16.30;99.90;;;;;;4994411;28;20565;-48
2022/10/06 01:54:28;;;;;;;6.53;4.22;;;16.40;99.90;;;;;;4993957;28;20038;-45
2022/10/06 01:56:54;;;;;;;5.50;2.92;;;16.40;99.90;;;;;;4994413;28;20041;-46
2022/10/06 01:59:19;;;;;;;7.18;3.22;;;16.40;99.90;;;;;;4994213;28;20470;-48
2022/10/06 02:01:44;;;;;;;3.63;2.67;;;16.40;99.90;;;;;;4994101;28;20022;-46
2022/10/06 02:04:10;;;;;;;7.13;3.00;;;16.50;99.90;;;;;;5014598;23;20042;-51
2022/10/06 02:06:35;;;;;;;7.68;3.38;;;16.40;99.90;;;;;;4994033;28;20395;-53
2022/10/06 02:09:01;;;;;;;18.35;9.95;;;16.50;99.90;;;;;;5009131;28;20030;-47
2022/10/06 02:11:27;;;;;;;15.98;9.27;;;16.50;99.90;;;;;;5008856;28;20029;-48
2022/10/06 02:13:53;;;;;;;7.43;3.67;;;16.40;99.90;;;;;;4993676;28;20034;-49
2022/10/06 02:16:19;;;;;;;4.68;3.25;;;16.30;99.90;;;;;;4993837;28;20404;-50
2022/10/06 02:18:45;;;;;;;4.57;3.78;;;16.20;99.90;;;;;;4993757;28;20109;-50
2022/10/06 02:21:18;;;;;;;8.95;3.25;;;16.20;99.90;;;;;;4993938;28;20585;-50
2022/10/06 02:23:44;;;;;;;8.65;3.75;;;16.20;99.90;;;;;;4992468;28;20459;-48
2022/10/06 02:26:10;;;;;;;9.55;3.10;;;16.20;99.90;;;;;;4993872;28;20159;-50
2022/10/06 02:28:35;;;;;;;6.38;4.22;;;16.30;99.90;;;;;;4993047;28;20026;-50
2022/10/06 02:31:07;;;;;;;4.15;3.17;;;16.20;99.90;;;;;;4993829;28;20038;-52
2022/10/06 02:33:33;;;;;;;4.68;3.40;;;16.20;99.90;;;;;;4994282;28;20050;-50
2022/10/06 02:35:59;;;;;;;6.70;3.20;;;16.10;99.90;;;;;;4993892;28;20117;-52
2022/10/06 02:38:24;;;;;;;4.88;3.08;;;16.10;99.90;;;;;;4993581;28;20061;-50
2022/10/06 02:40:52;;;;;;;6.78;4.05;;;16.20;99.90;;;;;;4992339;28;20030;-50
2022/10/06 02:43:18;;;;;;;6.30;3.15;;;16.10;99.90;;;;;;4993334;28;20026;-53
2022/10/06 02:45:51;;;;;;;6.57;3.35;;;16.10;99.90;;;;;;4992154;28;20096;-49
2022/10/06 02:48:16;;;;;;;6.15;2.80;;;16.10;99.90;;;;;;4993318;28;20030;-51
2022/10/06 02:50:42;;;;;;;7.65;4.07;;;16.10;99.90;;;;;;4993440;28;20029;-48
2022/10/06 02:53:07;;;;;;;9.43;2.97;;;16.20;99.90;;;;;;4992998;28;20486;-48
2022/10/06 02:55:34;;;;;;;6.03;3.88;;;16.10;99.90;;;;;;4993274;28;20093;-48
2022/10/06 02:58:01;;;;;;;10.45;3.30;;;16.10;99.90;;;;;;4993237;28;20023;-49
2022/10/06 03:00:26;;;;;;;3.97;3.10;;;16.10;99.90;;;;;;4991802;28;20034;-53
2022/10/06 03:02:52;;;;;;;9.60;3.17;;;16.00;99.90;;;;;;4992783;28;20022;-47
2022/10/06 03:05:18;;;;;;;4.50;2.95;;;16.00;99.90;;;;;;4992957;28;20398;-49
2022/10/06 03:07:44;;;;;;;3.60;2.80;;;16.00;99.90;;;;;;4993217;28;20037;-48
2022/10/06 03:10:09;;;;;;;5.25;2.53;;;16.00;99.90;;;;;;4992878;28;20164;-48
2022/10/06 03:12:35;;;;;;;4.53;2.65;;;16.00;99.90;;;;;;4992599;28;20034;-54
2022/10/06 03:15:00;;;;;;;6.90;2.67;;;16.00;99.90;;;;;;4992783;28;20038;-47
2022/10/06 03:17:26;;;;;;;7.82;2.60;;;16.00;99.90;;;;;;4992727;28;20498;-48
2022/10/06 03:19:53;;;;;;;3.22;2.88;;;16.00;99.90;;;;;;4991432;28;20037;-49
2022/10/06 03:22:18;;;;;;;5.50;3.00;;;16.00;99.90;;;;;;4991881;28;20033;-48
2022/10/06 03:24:44;;;;;;;3.17;1.90;;;16.00;99.90;;;;;;4992626;28;20026;-50
2022/10/06 03:27:09;;;;;;;3.47;2.30;;;16.00;99.90;;;;;;4991374;28;20026;-50
2022/10/06 03:29:35;;;;;;;2.40;1.90;;;16.00;99.90;;;;;;4992220;28;20034;-50
2022/10/06 03:32:00;;;;;;;6.57;1.80;;;16.00;99.90;;;;;;4992362;28;20065;-49
2022/10/06 03:34:26;;;;;;;3.10;2.03;;;16.00;99.90;;;;;;4992408;28;20038;-48
2022/10/06 03:36:51;;;;;;;10.10;2.33;;;16.00;99.90;;;;;;4992581;28;20023;-48
2022/10/06 03:39:17;;;;;;;3.13;2.30;;;16.00;99.90;;;;;;4992446;28;20042;-50
2022/10/06 03:41:42;;;;;;;5.65;1.75;;;16.10;99.90;;;;;;4992342;28;20026;-48
2022/10/06 03:44:08;;;;;;;3.92;2.30;;;16.00;99.90;;;;;;4991926;28;20034;-48
2022/10/06 03:46:35;;;;;;;2.30;1.38;;;16.00;99.90;;;;;;4992439;28;20052;-48
2022/10/06 03:49:00;;;;;;;5.07;1.50;;;16.00;99.90;;;;;;4992338;28;20031;-47
2022/10/06 03:51:32;;;;;;;1.77;1.67;;;16.00;99.90;;;;;;4992355;28;20077;-51
2022/10/06 03:53:58;;;;;;;2.97;1.38;;;16.00;99.90;;;;;;4991927;28;20037;-52
2022/10/06 03:56:27;;;;;;;4.05;1.30;;;16.00;99.90;;;;;;4992195;28;20045;-51
2022/10/06 03:58:55;;;;;;;6.07;1.00;;;15.80;99.90;;;;;;4992241;28;20026;-48
2022/10/06 04:01:24;;;;;;;5.47;1.70;;;15.80;99.90;;;;;;4992190;28;20018;-48
2022/10/06 04:03:49;;;;;;;9.55;1.45;;;15.70;99.90;;;;;;4991616;28;20022;-48
2022/10/06 04:06:17;;;;;;;3.33;0.90;;;15.80;99.90;;;;;;4992339;28;20033;-50
2022/10/06 04:08:47;;;;;;;4.50;1.00;;;15.70;99.90;;;;;;4992093;28;20030;-48
2022/10/06 04:11:20;;;;;;;2.75;0.90;;;15.70;99.90;;;;;;4990727;28;20482;-51
2022/10/06 04:13:47;;;;;;;2.88;0.93;;;15.70;99.90;;;;;;4991705;28;20034;-51
2022/10/06 04:16:18;;;;;;;1.40;0.70;;;15.60;99.90;;;;;;4992212;28;20030;-54
2022/10/06 04:18:47;;;;;;;1.25;0.88;;;15.60;99.90;;;;;;4990740;28;20049;-48
2022/10/06 04:21:13;;;;;;;6.57;1.80;;;15.70;99.90;;;;;;4991983;28;20114;-51
2022/10/06 04:23:39;;;;;;;5.07;0.82;;;15.60;99.90;;;;;;4991522;28;20109;-51
2022/10/06 04:26:09;;;;;;;4.78;1.35;;;15.70;99.90;;;;;;4991925;28;20398;-54
2022/10/06 04:28:36;;;;;;;2.28;0.90;;;15.60;99.90;;;;;;4990203;28;20026;-48
2022/10/06 04:31:05;;;;;;;2.45;0.90;;;15.60;99.90;;;;;;4991893;28;20023;-49
2022/10/06 04:33:33;;;;;;;2.80;0.90;;;15.60;99.90;;;;;;4993765;28;20220;-50
2022/10/06 04:36:05;;;;;;;2.40;0.80;;;15.60;99.90;;;;;;4995796;28;20036;-48
2022/10/06 04:38:32;;;;;;;2.47;0.77;;;15.60;99.90;;;;;;4995745;28;20041;-51
2022/10/06 04:41:15;;;;;;;2.97;0.98;;;15.60;99.90;;;;;;4995699;28;20109;-49
2022/10/06 04:43:41;;;;;;;1.55;0.73;;;15.60;99.90;;;;;;4995368;28;20054;-47
2022/10/06 04:46:09;;;;;;;1.73;0.68;;;15.70;99.90;;;;;;4995660;28;20064;-50
2022/10/06 04:48:34;;;;;;;6.43;1.23;;;15.60;99.90;;;;;;4995554;28;20062;-47
2022/10/06 04:51:02;;;;;;;8.38;0.90;;;15.60;99.90;;;;;;4995613;28;20513;-49
2022/10/06 04:53:29;;;;;;;3.80;0.73;;;15.60;99.90;;;;;;4995036;28;20030;-53
2022/10/06 04:56:06;;;;;;;1.27;0.70;;;15.60;99.90;;;;;;4995369;28;20073;-51
2022/10/06 04:58:34;;;;;;;4.25;0.93;;;15.50;99.90;;;;;;4995555;28;20026;-53
2022/10/06 05:01:01;;;;;;;4.65;0.90;;;15.50;99.90;;;;;;4995410;28;20037;-53
2022/10/06 05:03:28;;;;;;;1.85;0.77;;;15.40;99.90;;;;;;4995143;28;20487;-52
2022/10/06 05:06:02;;;;;;;4.13;1.10;;;15.40;99.90;;;;;;4995065;28;20034;-54
2022/10/06 05:08:28;;;;;;;3.72;0.80;;;15.50;99.90;;;;;;4995221;28;20018;-51
2022/10/06 05:11:01;;;;;;;4.85;0.80;;;15.40;99.90;;;;;;4995190;28;20540;-45
2022/10/06 05:13:26;;;;;;;3.20;0.80;;;15.40;99.90;;;;;;4994942;28;20080;-45
2022/10/06 05:15:59;;;;;;;2.95;0.90;;;15.40;99.90;;;;;;4995170;28;20057;-52
2022/10/06 05:18:26;;;;;;;2.42;0.77;;;15.30;99.90;;;;;;4995143;28;20036;-50
2022/10/06 05:21:25;;;;;;;4.32;0.90;;;15.30;99.90;;;;;;4996014;28;20109;-49
2022/10/06 05:23:51;;;;;;;4.45;1.30;;;15.20;99.90;;;;;;4994287;28;20038;-51
2022/10/06 05:26:22;;;;;;;2.17;1.00;;;15.10;99.90;;;;;;4994851;28;20105;-48
2022/10/06 05:28:47;;;;;;;1.73;0.80;;;15.00;99.90;;;;;;4994455;28;20066;-47
2022/10/06 05:31:16;;;;;;;4.40;1.83;;;15.00;99.90;;;;;;4994830;28;20077;-52
2022/10/06 05:33:42;;;;;;;1.95;0.80;;;14.90;99.90;;;;;;4994402;28;20103;-48
2022/10/06 05:36:15;;;;;;;4.40;1.15;;;14.80;99.90;;;;;;4994719;28;20456;-49
2022/10/06 05:38:41;;;;;;;3.63;1.38;;;14.60;99.90;;;;;;4994654;28;20065;-51
2022/10/06 05:41:27;;;;;;;3.97;1.20;;;14.60;99.90;;;;;;4994706;28;20019;-48
2022/10/06 05:43:53;;;;;;;;;;;14.50;99.90;;;;;;4994547;28;20030;-53
2022/10/06 05:46:27;;;;;;;3.25;1.08;;;14.50;99.90;;;;;;4994087;28;19906;-48
2022/10/06 05:48:55;;;;;;;2.65;1.05;;;14.50;99.90;;;;;;4994541;28;20023;-48
2022/10/06 05:51:23;;;;;;;9.75;1.10;;;14.50;99.90;;;;;;4994518;28;20054;-49
2022/10/06 05:53:49;;;;;;;2.33;0.77;;;14.50;99.90;;;;;;4993895;28;20109;-52
2022/10/06 05:56:20;;;;;;;4.90;1.00;;;14.50;99.90;;;;;;4994252;28;20053;-49
2022/10/06 05:58:48;;;;;;;3.97;1.13;;;14.50;99.90;;;;;;4994065;28;20133;-53
2022/10/06 06:01:24;;;;;;;2.50;1.25;;;14.50;99.90;;;;;;4993058;28;20034;-50
2022/10/06 06:03:52;;;;;;;6.05;0.88;;;14.40;99.90;;;;;;4993872;28;20105;-50
2022/10/06 06:06:19;;;;;;;3.30;1.00;;;14.40;99.90;;;;;;4994266;28;20085;-48
2022/10/06 06:08:50;;;;;;;3.08;1.10;;;14.40;99.90;;;;;;4994144;28;20437;-52
2022/10/06 06:11:15;;;;;;;2.92;1.10;;;14.40;99.90;;;;;;4994233;28;20084;-50
2022/10/06 06:13:41;;;;;;;10.43;2.00;;;14.40;99.90;;;;;;4994012;28;20058;-52
2022/10/06 06:16:12;;;;;;;4.75;1.48;;;14.50;99.90;;;;;;4992823;28;20109;-54
2022/10/06 06:18:38;;;;;;;5.00;0.88;;;14.60;99.90;;;;;;4993878;28;20026;-49
2022/10/06 06:21:06;;;;;;;6.53;1.05;;;14.70;99.90;;;;;;4993920;28;20069;-53
2022/10/06 06:23:35;;;;;;;4.72;1.35;;;14.70;99.90;;;;;;4993421;28;20026;-50
2022/10/06 06:26:03;;;;;;;5.22;1.35;;;14.80;99.90;;;;;;4993747;28;20093;-50
2022/10/06 06:28:29;;;;;;;8.57;1.40;;;14.90;99.90;;;;;;4993477;28;20054;-48
2022/10/06 06:31:06;;;;;;;6.10;1.05;;;15.00;99.90;;;;;;4993645;28;20109;-48
2022/10/06 06:33:33;;;;;;;11.77;1.42;;;14.90;99.90;;;;;;4993266;28;20383;-52
2022/10/06 06:36:01;;;;;;;3.78;1.15;;;14.90;99.90;;;;;;4993492;28;20065;-49
2022/10/06 06:38:27;;;;;;;3.33;1.10;;;15.00;99.90;;;;;;4993426;28;20018;-51
2022/10/06 06:40:53;;;;;;;4.45;1.42;;;15.00;99.90;;;;;;4993606;28;20019;-47
2022/10/06 06:43:18;;;;;;;10.23;1.50;;;15.10;99.90;;;;;;4993270;28;20029;-50
2022/10/06 06:45:44;;;;;;;4.57;0.95;;;15.30;99.90;;;;;;4992078;28;20521;-49
2022/10/06 06:48:16;;;;;;;3.92;0.80;;;15.40;99.90;;;;;;4993380;28;20150;-51
2022/10/06 06:50:42;;;;;;;6.95;1.00;;;15.90;99.90;;;;;;4993330;28;20534;-48
2022/10/06 06:53:08;;;;;;;3.08;0.80;;;16.60;99.90;;;;;;4993103;28;20124;-48
2022/10/06 06:55:33;;;;;;;1.92;1.08;;;17.20;99.90;;;;;;4992849;28;20069;-48
2022/10/06 06:57:59;;;;;;;11.88;3.50;;;17.50;99.90;;;;;;4992525;28;20027;-45
2022/10/06 07:00:24;;;;;;;5.70;1.40;;;17.50;99.90;;;;;;4992923;28;20022;-52
2022/10/06 07:02:54;;;;;;;1.73;1.55;;;17.80;99.90;;;;;;4992723;28;20034;-52
2022/10/06 07:05:21;;;;;;;3.20;1.17;;;18.20;99.90;;;;;;4992926;28;20038;-48
2022/10/06 07:07:46;;;;;;;4.45;1.42;;;18.80;99.90;;;;;;4993035;28;20033;-46
2022/10/06 07:10:12;;;;;;;2.17;1.20;;;19.60;99.90;;;;;;4992962;28;20038;-51
2022/10/06 07:12:37;;;;;;;3.17;1.02;;;20.50;99.90;;;;;;4992616;28;20437;-50
2022/10/06 07:26:02;;;;;;;5.50;1.00;;;23.20;98.20;;;;;;4992730;28;20465;-45
2022/10/06 07:28:29;;;;;;;3.67;1.23;;;22.30;99.40;;;;;;4992418;28;20018;-54
2022/10/06 07:30:55;;;;;;;3.28;1.17;;;21.70;99.90;;;;;;4992720;28;20029;-52
2022/10/06 07:33:21;;;;;;;3.97;1.13;;;20.80;99.90;;;;;;4990998;28;20033;-48
2022/10/06 07:35:46;;;;;;;2.58;1.33;;;19.80;99.90;;;;;;4992434;28;20022;-47
2022/10/06 07:38:12;;;;;;;5.07;1.23;;;19.10;99.90;;;;;;4992498;28;20497;-52
2022/10/06 07:40:37;;;;;;;4.85;0.95;;;18.80;99.90;;;;;;4992438;28;20034;-50
2022/10/06 07:43:03;;;;;;;3.25;1.38;;;18.40;99.90;;;;;;4992377;28;20117;-51
2022/10/06 07:45:38;;;;;;;4.53;1.30;;;18.00;99.90;;;;;;4992458;28;20398;-48
2022/10/06 07:48:16;;;;;;;3.10;1.10;;;17.50;99.90;;;;;;4991162;28;20117;-48
2022/10/06 07:50:44;;;;;;;5.82;1.40;;;17.30;99.90;;;;;;4992474;28;20028;-52
2022/10/06 07:53:10;;;;;;;5.45;0.98;;;17.10;99.90;;;;;;4993599;28;20022;-49
2022/10/06 07:55:39;;;;;;;6.30;1.75;;;16.80;99.90;;;;;;4992713;28;20048;-47
2022/10/06 07:58:17;;;;;;;7.55;1.58;;;16.80;99.90;;;;;;4990942;28;20018;-49
2022/10/06 08:00:44;;;;;;;7.07;1.42;;;16.70;99.90;;;;;;4992104;28;20018;-50
2022/10/06 08:03:13;;;;;;;11.10;1.80;;;16.70;99.90;;;;;;4991953;28;20030;-52
2022/10/06 08:05:39;;;;;;;2.72;1.20;;;16.70;99.90;;;;;;5025518;22;20116;-44
2022/10/06 08:08:05;;;;;;;21.20;2.15;;;16.60;99.90;;;;;;5011617;28;20026;-48
2022/10/06 08:10:31;;;;;;;6.85;1.60;;;16.60;99.90;;;;;;5011872;28;20030;-46
2022/10/06 08:12:56;;;;;;;3.15;1.40;;;16.60;99.90;;;;;;5026476;28;20397;-47
2022/10/06 08:15:22;;;;;;;6.90;1.42;;;16.60;99.90;;;;;;5011799;28;20452;-45
2022/10/06 08:17:47;;;;;;;7.35;1.75;;;16.70;99.90;;;;;;5011533;28;20018;-48
2022/10/06 08:20:13;;;;;;;8.95;2.40;;;16.80;99.90;;;;;;5011519;28;20026;-46
2022/10/06 08:22:39;;;;;;;9.43;1.50;;;16.70;99.90;;;;;;5011674;28;20083;-47
2022/10/06 08:25:07;;;;;;;9.00;1.85;;;16.70;99.90;;;;;;5011608;28;20141;-46
2022/10/06 08:27:35;;;;;;;9.48;1.90;;;16.70;99.90;;;;;;5011307;28;20101;-45
2022/10/06 08:30:00;;;;;;;13.27;2.15;;;16.60;99.90;;;;;;5012669;28;20089;-49
2022/10/06 08:32:26;;;;;;;8.95;1.60;;;16.50;99.90;;;;;;5011048;28;20184;-49
2022/10/06 08:34:52;;;;;;;6.93;1.45;;;16.40;99.90;;;;;;5011209;28;20029;-46
2022/10/06 08:37:25;;;;;;;9.80;1.95;;;16.30;99.90;;;;;;5011455;28;20022;-50
2022/10/06 08:39:51;;;;;;;7.28;1.73;;;16.40;99.90;;;;;;5012688;28;20033;-48
2022/10/06 08:42:27;;;;;;;7.45;1.40;;;16.30;99.90;;;;;;5010975;28;20029;-46
2022/10/06 08:44:59;;;;;;;7.47;1.95;;;16.20;99.90;;;;;;5011283;28;20022;-46
2022/10/06 08:47:27;;;;;;;12.82;1.77;;;16.20;99.90;;;;;;5011537;28;20080;-46
2022/10/06 08:49:53;;;;;;;6.45;1.48;;;16.10;99.90;;;;;;5011288;28;20056;-46
2022/10/06 08:52:37;;;;;;;7.63;1.27;;;16.10;99.90;;;;;;5010922;28;20105;-47
2022/10/06 08:55:24;;;;;;;11.20;1.67;;;16.10;99.90;;;;;;5011201;28;20099;-51
2022/10/06 08:58:08;;;;;;;7.50;1.40;;;16.10;99.90;;;;;;5011530;28;20030;-47
2022/10/06 09:00:35;;;;;;;7.43;1.75;;;16.20;99.90;;;;;;5011418;28;20117;-46
2022/10/06 09:03:02;;;;;;;8.32;2.50;;;16.30;99.90;;;;;;5010869;28;20029;-47
2022/10/06 09:05:30;;;;;;;6.85;1.90;;;16.90;99.90;;;;;;5011157;28;20524;-48
2022/10/06 09:08:05;;;;;;;5.07;1.85;;;18.30;99.90;;;;;;5011260;28;20075;-52
2022/10/06 09:10:52;;;;;;;6.38;2.83;;;19.80;98.50;;;;;;5011362;28;20433;-46
2022/10/06 09:13:29;;;;;;;11.48;2.35;;;21.40;96.60;;;;;;5010787;28;20112;-47
2022/10/06 09:16:06;;;;;;;4.28;1.20;;;23.00;93.00;;;;;;5011127;28;20018;-47
2022/10/06 09:18:37;;;;;;;7.53;1.33;;;23.70;90.60;;;;;;5010968;28;20081;-49
2022/10/06 09:21:10;;;;;;;5.03;1.63;;;24.40;88.50;;;;;;5013981;28;20469;-48
2022/10/06 09:23:48;;;;;;;9.23;2.95;;;25.30;85.60;;;;;;5014286;28;20018;-50
2022/10/06 09:26:21;;;;;;;5.43;1.83;;;25.50;84.30;;;;;;5014695;28;20023;-52
2022/10/06 09:28:48;;;;;;;4.70;1.30;;;26.10;81.90;;;;;;5015327;28;20512;-49
2022/10/06 09:31:28;;;;;;;4.72;1.10;;;26.40;80.20;;;;;;5016137;28;20057;-51
2022/10/06 09:34:03;;;;;;;7.20;1.55;;;26.70;78.80;;;;;;5014326;28;20121;-50
2022/10/06 09:36:30;;;;;;;4.90;1.40;;;26.60;76.70;;;;;;5014733;28;20022;-48
2022/10/06 09:38:57;;;;;;;5.97;1.40;;;26.70;76.20;;;;;;5014342;28;20073;-51
2022/10/06 09:41:28;;;;;;;8.38;2.17;;;26.50;75.10;;;;;;5013176;28;20394;-48
2022/10/06 09:44:02;;;;;;;3.78;1.48;;;26.00;75.70;;;;;;5013869;28;20096;-47
2022/10/06 09:46:38;;;;;;;3.63;1.20;;;25.30;77.60;;;;;;5014258;28;20025;-51
2022/10/06 09:49:24;;;;;;;8.27;1.55;;;24.90;78.10;;;;;;5014090;28;20402;-50
2022/10/06 09:52:07;;;;;;;6.45;1.50;;;24.00;78.80;;;;;;5014125;28;20501;-50
2022/10/06 09:54:33;;;;;;;5.32;1.63;;;23.50;78.50;;;;;;5013893;28;20026;-49
2022/10/06 09:57:13;;;;;;;6.30;1.35;;;22.90;79.70;;;;;;5014224;28;20025;-50
2022/10/06 09:59:44;;;;;;;10.10;1.63;;;22.30;82.10;;;;;;5014088;28;20256;-46
2022/10/06 10:02:35;;;;;;;8.00;2.38;;;21.70;83.50;;;;;;5013702;28;20045;-50
2022/10/06 10:05:06;;;;;;;8.48;2.75;;;21.10;85.70;;;;;;5013707;28;20057;-47
2022/10/06 10:07:34;;;;;;;9.30;1.55;;;20.70;87.50;;;;;;5013928;28;20401;-49
2022/10/06 10:10:22;;;;;;;6.60;1.58;;;20.60;88.90;;;;;;5013774;28;20026;-46
2022/10/06 10:12:52;;;;;;;5.97;1.85;;;20.40;89.30;;;;;;5013461;28;20041;-48
2022/10/06 10:15:17;;;;;;;10.27;2.53;;;20.40;90.20;;;;;;5012061;28;20026;-48
2022/10/06 10:17:58;;;;;;;9.48;1.80;;;20.40;90.30;;;;;;5013826;28;20029;-49
2022/10/06 10:20:23;;;;;;;7.82;2.03;;;20.20;90.60;;;;;;5013571;28;20449;-48
2022/10/06 10:22:50;;;;;;;7.35;2.00;;;20.20;90.30;;;;;;5012133;28;20022;-48
2022/10/06 10:25:46;;;;;;;8.10;2.00;;;20.00;90.40;;;;;;5013462;28;20026;-48
2022/10/06 10:28:33;;;;;;;7.73;1.53;;;19.70;90.90;;;;;;5013343;28;20033;-47
2022/10/06 10:31:26;;;;;;;9.38;2.47;;;19.70;91.40;;;;;;5013688;28;20037;-47
2022/10/06 10:34:11;;;;;;;12.77;2.40;;;19.60;91.40;;;;;;5012884;28;20029;-46
2022/10/06 10:36:44;;;;;;;9.68;2.08;;;19.40;91.60;;;;;;5013572;28;20022;-46
2022/10/06 10:39:17;;;;;;;16.90;2.72;;;19.40;92.10;;;;;;5013417;28;20052;-49
2022/10/06 10:41:51;;;;;;;10.48;2.40;;;19.40;91.60;;;;;;5012143;28;20022;-47
2022/10/06 10:44:36;;;;;;;9.77;2.25;;;19.40;91.40;;;;;;5013083;28;20401;-47
2022/10/06 10:47:13;;;;;;;8.52;2.10;;;19.20;91.60;;;;;;5013388;28;20026;-47
2022/10/06 10:49:46;;;;;;;9.68;1.80;;;19.10;92.20;;;;;;5012970;28;20061;-48
2022/10/06 10:52:19;;;;;;;9.95;2.05;;;19.10;92.50;;;;;;5012821;28;20022;-48
2022/10/06 10:54:56;;;;;;;9.77;1.95;;;19.30;93.30;;;;;;5012773;28;20079;-49
2022/10/06 10:57:32;;;;;;;10.40;2.00;;;19.30;92.40;;;;;;5012933;28;20113;-52
2022/10/06 11:00:11;;;;;;;10.43;1.98;;;19.20;93.40;;;;;;5012742;28;20559;-49
2022/10/06 11:02:38;;;;;;;9.63;2.03;;;19.30;93.30;;;;;;5012512;28;20116;-48
2022/10/06 11:05:46;;;;;;;7.55;1.98;;;19.30;93.40;;;;;;5012441;28;20478;-49
2022/10/06 11:08:35;;;;;;;7.97;1.73;;;19.20;93.10;;;;;;5012802;28;20026;-48
2022/10/06 11:11:07;;;;;;;9.35;2.15;;;19.20;93.20;;;;;;5012837;28;20121;-49
2022/10/06 11:13:49;;;;;;;5.53;1.45;;;19.10;93.60;;;;;;5012529;28;20370;-46
2022/10/06 11:16:36;;;;;;;11.52;2.35;;;19.00;92.90;;;;;;5012507;28;20103;-47
2022/10/06 11:19:13;;;;;;;11.52;2.10;;;18.80;93.00;;;;;;5012550;28;20413;-51
2022/10/06 11:21:55;;;;;;;7.47;1.60;;;18.60;93.70;;;;;;5012468;28;20022;-46
2022/10/06 11:24:31;;;;;;;8.57;2.78;;;18.40;94.00;;;;;;5012636;28;20026;-50
2022/10/06 11:26:59;;;;;;;11.77;2.05;;;18.40;94.10;;;;;;5012909;28;20100;-49
2022/10/06 11:29:36;;;;;;;12.07;3.70;;;18.40;94.60;;;;;;5012026;28;20064;-49
2022/10/06 11:32:08;;;;;;;9.57;1.83;;;18.40;94.20;;;;;;5012260;28;20032;-47
2022/10/06 11:34:33;;;;;;;14.00;3.45;;;18.30;94.60;;;;;;5012154;28;20446;-50
2022/10/06 11:37:17;;;;;;;7.70;1.70;;;18.30;94.80;;;;;;5012073;28;20049;-47
2022/10/06 11:39:50;;;;;;;8.75;1.95;;;18.40;95.00;;;;;;5012480;28;20029;-50
2022/10/06 11:42:24;;;;;;;10.00;2.20;;;18.40;94.70;;;;;;5011323;28;20030;-49
2022/10/06 11:45:02;;;;;;;60.83;40.17;;;18.40;94.60;;;;;;5012131;28;20105;-48
2022/10/06 11:47:40;;;;;;;7.57;1.98;;;18.50;94.70;;;;;;5012060;28;20058;-48
2022/10/06 11:50:30;;;;;;;6.55;1.58;;;18.50;95.50;;;;;;5011783;28;20030;-49
2022/10/06 11:52:55;;;;;;;6.40;1.88;;;18.50;95.10;;;;;;5011585;28;20030;-49
2022/10/06 11:55:25;;;;;;;8.90;1.90;;;18.40;95.00;;;;;;5011706;28;20037;-50
2022/10/06 11:58:08;;;;;;;10.13;3.08;;;18.40;94.10;;;;;;5011637;28;20389;-48
2022/10/06 12:00:34;;;;;;;5.85;1.42;;;18.40;93.90;;;;;;5011766;28;20018;-48
2022/10/06 12:03:28;;;;;;;15.40;2.05;;;18.40;94.40;;;;;;5011572;28;20025;-51
2022/10/06 12:05:54;;;;;;;7.97;1.70;;;18.50;94.00;;;;;;5011637;28;20034;-51
2022/10/06 12:08:39;;;;;;;6.55;1.98;;;18.50;94.40;;;;;;5011679;28;20032;-48
2022/10/06 12:11:41;;;;;;;6.03;1.45;;;18.50;93.80;;;;;;5011620;28;20026;-50
2022/10/06 12:14:30;;;;;;;10.48;2.33;;;18.50;93.40;;;;;;5011492;28;20109;-51
2022/10/06 12:17:19;;;;;;;7.40;1.67;;;18.40;94.60;;;;;;5011969;28;20310;-46
2022/10/06 12:20:12;;;;;;;7.82;1.23;;;18.30;94.70;;;;;;5011754;28;20454;-49
2022/10/06 12:22:49;;;;;;;11.23;1.75;;;18.20;94.70;;;;;;5011576;28;20018;-50
2022/10/06 12:25:19;;;;;;;7.63;1.90;;;18.20;94.50;;;;;;5011861;28;20026;-47
2022/10/06 12:28:26;;;;;;;5.30;1.30;;;18.30;94.70;;;;;;5011978;28;20045;-51
2022/10/06 12:31:22;;;;;;;10.13;2.05;;;18.20;94.90;;;;;;5010435;28;20029;-48
2022/10/06 12:33:47;;;;;;;9.03;2.17;;;18.20;95.10;;;;;;5011036;28;20041;-47
2022/10/06 12:36:20;;;;;;;12.35;1.88;;;18.30;94.60;;;;;;5011469;28;20018;-49
2022/10/06 12:39:20;;;;;;;8.85;1.50;;;18.30;94.90;;;;;;5011442;28;20026;-47
2022/10/06 12:42:06;;;;;;;3.35;1.27;;;18.30;95.30;;;;;;5010886;28;20404;-50
2022/10/06 12:44:41;;;;;;;6.60;1.75;;;18.20;94.40;;;;;;5009477;28;20093;-48
2022/10/06 12:47:11;;;;;;;;;;;18.20;94.40;;;;;;5011278;28;20026;-48
2022/10/06 12:49:58;;;;;;;15.57;2.40;;;18.10;94.80;;;;;;5011033;28;19909;-48
2022/10/06 12:52:46;;;;;;;6.38;1.58;;;18.10;95.20;;;;;;5009654;28;20022;-48
2022/10/06 12:55:31;;;;;;;6.75;1.38;;;18.10;95.00;;;;;;5012883;28;20037;-49
2022/10/06 12:57:56;;;;;;;4.78;1.30;;;18.10;95.00;;;;;;5015274;28;20393;-48
2022/10/06 13:00:38;;;;;;;8.82;1.50;;;18.20;95.20;;;;;;5013998;28;20029;-47
2022/10/06 13:03:07;;;;;;;17.80;3.80;;;18.20;95.00;;;;;;5015000;28;20152;-49
2022/10/06 13:05:35;;;;;;;6.00;1.55;;;18.20;94.20;;;;;;5015150;28;20034;-52
2022/10/06 13:08:01;;;;;;;6.55;1.75;;;18.20;94.90;;;;;;5015075;28;20018;-47
2022/10/06 13:10:34;;;;;;;5.32;1.40;;;18.20;95.10;;;;;;5014918;28;20033;-49
2022/10/06 13:13:00;;;;;;;6.80;2.38;;;18.20;95.10;;;;;;5014494;28;20076;-51
2022/10/06 13:15:32;;;;;;;16.98;3.60;;;18.10;95.10;;;;;;5014536;28;20080;-46